Terminal Aerodrome Forecast
Issued by NWS

Current Version | Previous Version | Text Only | Print | Product List | Glossary On
Versions: 1 2 3 4 5 6 7 8 9 10 11 12 13 14 15 16 17 18 19 20 21 22 23 24 25 26 27 28 29 30 31 32
831 FTUS41 KOKX 041935 AAC TAFGON TAF AMD KGON 041935Z 0420/0518 06015G22KT P6SM SCT015 OVC025 TEMPO 0420/0421 4SM -SHRA BKN015 FM042100 06015G22KT 4SM -SHRA BR VCTS OVC015CB FM050000 03016G24KT 4SM -DZ BR OVC010 FM050700 02014G21KT 4SM -DZ BR OVC008=

USA.gov is the U.S. government's official web portal to all federal, state and local government web resources and services.